Time;durP1;ratioP1;P1;durP2;ratioP2;P2;SDS_P1;SDS_P2;PMS_P1;PMS_P2;Temp;Humidity;BMP_temperature;BMP_pressure;BME280_temperature;BME280_humidity;BME280_pressure;Samples;Min_cycle;Max_cycle;Signal;HPM_P1;HPM_P2
2022/06/01 00:01:46;;;;;;;0.80;0.80;;;;;;;;;;4944567;28;20234;-58
2022/06/01 00:04:34;;;;;;;1.00;1.00;;;;;;;;;;4939894;29;20671;-57
2022/06/01 00:07:23;;;;;;;0.90;0.90;;;;;;;;;;4944947;29;20227;-58
2022/06/01 00:10:10;;;;;;;1.00;1.00;;;;;;;;;;4943338;28;20234;-57
2022/06/01 00:12:57;;;;;;;0.97;0.97;;;;;;;;;;4942642;28;20257;-57
2022/06/01 00:15:45;;;;;;;1.00;1.00;;;;;;;;;;4941911;29;20295;-57
2022/06/01 00:18:32;;;;;;;0.93;0.93;;;;;;;;;;4937369;29;20208;-57
2022/06/01 00:21:20;;;;;;;0.80;0.80;;;;;;;;;;4944032;28;20207;-58
2022/06/01 00:24:07;;;;;;;1.10;1.10;;;;;;;;;;4940510;28;20214;-57
2022/06/01 00:26:54;;;;;;;0.80;0.80;;;;;;;;;;4941975;28;20561;-57
2022/06/01 00:29:42;;;;;;;0.80;0.80;;;;;;;;;;4940653;29;20215;-58
2022/06/01 00:32:29;;;;;;;1.13;0.90;;;;;;;;;;4942562;28;20214;-57
2022/06/01 00:35:22;;;;;;;1.00;1.00;;;;;;;;;;4945052;28;20297;-57
2022/06/01 00:38:10;;;;;;;1.10;1.10;;;;;;;;;;4942135;29;20244;-58
2022/06/01 00:40:57;;;;;;;0.90;0.90;;;;;;;;;;4938227;29;20213;-57
2022/06/01 00:43:46;;;;;;;0.73;0.73;;;;;;;;;;4940682;28;20221;-58
2022/06/01 00:46:33;;;;;;;0.90;0.90;;;;;;;;;;4940619;29;20218;-58
2022/06/01 00:49:22;;;;;;;1.00;1.00;;;;;;;;;;4945332;29;20670;-58
2022/06/01 00:52:11;;;;;;;0.90;0.90;;;;;;;;;;4943431;28;20263;-57
2022/06/01 00:54:59;;;;;;;1.07;1.07;;;;;;;;;;4940980;28;20211;-57
2022/06/01 00:57:49;;;;;;;1.00;1.00;;;;;;;;;;4936757;28;20203;-57
2022/06/01 01:00:39;;;;;;;0.90;0.90;;;;;;;;;;4941414;28;20503;-57
2022/06/01 01:03:29;;;;;;;0.90;0.90;;;;;;;;;;4947091;28;20214;-57
2022/06/01 01:06:19;;;;;;;1.00;1.00;;;;;;;;;;4941625;28;20223;-56
2022/06/01 01:09:08;;;;;;;0.97;0.97;;;;;;;;;;4939692;29;20212;-57
2022/06/01 01:12:01;;;;;;;1.00;1.00;;;;;;;;;;4939609;28;20243;-58
2022/06/01 01:14:48;;;;;;;1.13;1.03;;;;;;;;;;4945355;29;20214;-57
2022/06/01 01:17:37;;;;;;;0.90;0.90;;;;;;;;;;4935315;29;20342;-57
2022/06/01 01:20:25;;;;;;;1.23;1.23;;;;;;;;;;4946948;28;20215;-57
2022/06/01 01:23:22;;;;;;;0.90;0.90;;;;;;;;;;4935947;28;20211;-57
2022/06/01 01:26:11;;;;;;;0.87;0.87;;;;;;;;;;4939917;28;20302;-57
2022/06/01 01:28:58;;;;;;;0.97;0.97;;;;;;;;;;4939166;28;20219;-57
2022/06/01 01:31:45;;;;;;;1.00;1.00;;;;;;;;;;4941009;28;20613;-57
2022/06/01 01:34:32;;;;;;;1.33;1.10;;;;;;;;;;4945984;29;20214;-58
2022/06/01 01:37:23;;;;;;;1.10;1.10;;;;;;;;;;4940031;29;20231;-57
2022/06/01 01:40:11;;;;;;;1.60;1.60;;;;;;;;;;4944158;28;20213;-57
2022/06/01 01:43:01;;;;;;;1.40;1.40;;;;;;;;;;4939929;29;20223;-57
2022/06/01 01:45:49;;;;;;;1.50;1.50;;;;;;;;;;4945798;28;20211;-58
2022/06/01 01:48:37;;;;;;;1.30;1.30;;;;;;;;;;4937863;28;20203;-64
2022/06/01 01:51:26;;;;;;;1.10;1.10;;;;;;;;;;4940185;29;20596;-57
2022/06/01 01:54:27;;;;;;;1.97;1.70;;;;;;;;;;4938035;29;20220;-57
2022/06/01 01:57:34;;;;;;;1.20;1.20;;;;;;;;;;4940045;28;20214;-57
2022/06/01 02:00:26;;;;;;;1.00;1.00;;;;;;;;;;4952088;28;20227;-57
2022/06/01 02:03:17;;;;;;;1.37;1.10;;;;;;;;;;4944690;29;20219;-57
2022/06/01 02:06:12;;;;;;;1.10;1.10;;;;;;;;;;4944887;29;20223;-57
2022/06/01 02:09:04;;;;;;;1.10;1.10;;;;;;;;;;4945961;29;20210;-57
2022/06/01 02:14:59;;;;;;;1.20;1.20;;;;;;;;;;4943942;28;20200;-57
2022/06/01 02:17:50;;;;;;;1.13;1.13;;;;;;;;;;4944333;28;20214;-57
2022/06/01 02:20:41;;;;;;;1.00;1.00;;;;;;;;;;4945011;28;20234;-57
2022/06/01 02:23:30;;;;;;;1.20;1.10;;;;;;;;;;4946668;29;20334;-57
2022/06/01 02:26:19;;;;;;;1.00;1.00;;;;;;;;;;4943725;29;20216;-57
2022/06/01 02:29:10;;;;;;;1.00;1.00;;;;;;;;;;4944318;29;20695;-57
2022/06/01 02:31:59;;;;;;;1.20;1.20;;;;;;;;;;4949425;29;20227;-62
2022/06/01 02:34:49;;;;;;;1.00;1.00;;;;;;;;;;4943666;28;20219;-57
2022/06/01 02:37:39;;;;;;;1.20;1.10;;;;;;;;;;4948226;28;20211;-57
2022/06/01 02:40:28;;;;;;;1.20;1.20;;;;;;;;;;4942413;28;20242;-57
2022/06/01 02:43:15;;;;;;;0.90;0.90;;;;;;;;;;4948923;28;20219;-57
2022/06/01 02:46:03;;;;;;;0.97;0.97;;;;;;;;;;4947479;28;20214;-57
2022/06/01 02:48:50;;;;;;;0.80;0.80;;;;;;;;;;4938835;29;20219;-57
2022/06/01 02:51:39;;;;;;;1.00;1.00;;;;;;;;;;4941181;29;20231;-58
2022/06/01 02:54:26;;;;;;;1.20;1.10;;;;;;;;;;4944579;28;20208;-57
2022/06/01 02:57:14;;;;;;;1.10;1.10;;;;;;;;;;4945277;28;20693;-57
2022/06/01 03:00:02;;;;;;;1.00;1.00;;;;;;;;;;4940704;28;20215;-57
2022/06/01 03:02:51;;;;;;;1.00;1.00;;;;;;;;;;4945748;28;20290;-58
2022/06/01 03:05:41;;;;;;;1.10;1.10;;;;;;;;;;4946381;28;20211;-57
2022/06/01 03:08:30;;;;;;;0.90;0.90;;;;;;;;;;4944418;28;20216;-57
2022/06/01 03:11:17;;;;;;;0.83;0.83;;;;;;;;;;4948659;28;20253;-57
2022/06/01 03:14:04;;;;;;;1.10;1.10;;;;;;;;;;4946483;28;20339;-57
2022/06/01 03:16:52;;;;;;;1.00;1.00;;;;;;;;;;4951267;28;20212;-58
2022/06/01 03:19:39;;;;;;;1.20;1.20;;;;;;;;;;4945547;28;20208;-58
2022/06/01 03:22:26;;;;;;;1.10;1.10;;;;;;;;;;4938758;28;20214;-57
2022/06/01 03:25:18;;;;;;;1.00;1.00;;;;;;;;;;4945573;28;20216;-57
2022/06/01 03:28:06;;;;;;;1.23;1.23;;;;;;;;;;4943739;28;20224;-57
2022/06/01 03:30:53;;;;;;;1.03;1.03;;;;;;;;;;4947890;29;20223;-58
2022/06/01 03:33:40;;;;;;;1.30;1.30;;;;;;;;;;4941797;28;20214;-58
2022/06/01 03:36:27;;;;;;;1.17;1.17;;;;;;;;;;4948266;28;20212;-57
2022/06/01 03:39:14;;;;;;;1.20;1.20;;;;;;;;;;4949344;28;20208;-58
2022/06/01 03:42:03;;;;;;;0.90;0.90;;;;;;;;;;4941698;29;20207;-57
2022/06/01 03:47:57;;;;;;;1.10;1.10;;;;;;;;;;4940828;28;20557;-57
2022/06/01 03:50:45;;;;;;;1.10;1.10;;;;;;;;;;4944665;28;20688;-57
2022/06/01 03:53:32;;;;;;;0.90;0.90;;;;;;;;;;4947024;29;20692;-57
2022/06/01 03:56:22;;;;;;;1.00;1.00;;;;;;;;;;4946876;29;20234;-57
2022/06/01 03:59:11;;;;;;;1.10;1.10;;;;;;;;;;4939795;29;20576;-57
2022/06/01 04:02:01;;;;;;;1.20;1.20;;;;;;;;;;4946008;28;20238;-58
2022/06/01 04:04:48;;;;;;;1.00;1.00;;;;;;;;;;4946729;29;20223;-57
2022/06/01 04:07:35;;;;;;;1.30;1.30;;;;;;;;;;4942698;29;20218;-57
2022/06/01 04:10:23;;;;;;;1.30;1.20;;;;;;;;;;4943415;28;20244;-57
2022/06/01 04:13:10;;;;;;;1.10;1.10;;;;;;;;;;4947451;29;20208;-57
2022/06/01 04:15:58;;;;;;;1.20;1.20;;;;;;;;;;4942059;29;20216;-57
2022/06/01 04:18:46;;;;;;;1.20;1.20;;;;;;;;;;4942690;29;20223;-57
2022/06/01 04:21:37;;;;;;;1.10;1.10;;;;;;;;;;4941487;29;20209;-58
2022/06/01 04:24:27;;;;;;;1.10;1.10;;;;;;;;;;4946092;28;20935;-57
2022/06/01 04:27:14;;;;;;;1.10;1.10;;;;;;;;;;4941761;28;20252;-57
2022/06/01 04:30:01;;;;;;;1.00;1.00;;;;;;;;;;4942822;28;20689;-58
2022/06/01 04:32:52;;;;;;;1.20;1.20;;;;;;;;;;4948965;28;20223;-58
2022/06/01 04:35:39;;;;;;;1.20;1.20;;;;;;;;;;4942429;29;20211;-57
2022/06/01 04:38:26;;;;;;;1.40;1.40;;;;;;;;;;4942581;28;20673;-58
2022/06/01 04:41:13;;;;;;;1.07;1.07;;;;;;;;;;4938887;29;20212;-57
2022/06/01 04:44:00;;;;;;;1.47;1.23;;;;;;;;;;4946064;28;20209;-57
2022/06/01 04:46:48;;;;;;;1.10;1.10;;;;;;;;;;4939682;29;20212;-56
2022/06/01 04:49:36;;;;;;;1.33;1.10;;;;;;;;;;4941753;28;20598;-57
2022/06/01 04:52:23;;;;;;;0.93;0.93;;;;;;;;;;4936106;29;20238;-57
2022/06/01 04:55:10;;;;;;;1.10;1.10;;;;;;;;;;4942261;29;20213;-57
2022/06/01 04:57:57;;;;;;;1.10;1.10;;;;;;;;;;4946603;28;20217;-57
2022/06/01 05:00:45;;;;;;;1.10;1.10;;;;;;;;;;4943944;28;20260;-57
2022/06/01 05:03:32;;;;;;;1.00;1.00;;;;;;;;;;4944327;28;20209;-57
2022/06/01 05:06:20;;;;;;;1.27;1.27;;;;;;;;;;4937976;29;20213;-57
2022/06/01 05:09:08;;;;;;;0.93;0.90;;;;;;;;;;4943781;28;20205;-57
2022/06/01 05:11:56;;;;;;;0.97;0.97;;;;;;;;;;4941536;28;20242;-58
2022/06/01 05:14:43;;;;;;;1.23;1.23;;;;;;;;;;4944604;28;20255;-57
2022/06/01 05:17:31;;;;;;;1.20;1.20;;;;;;;;;;4944067;29;20578;-58
2022/06/01 05:20:19;;;;;;;1.30;1.30;;;;;;;;;;4936607;28;20206;-57
2022/06/01 05:23:07;;;;;;;1.20;1.20;;;;;;;;;;4947718;29;20576;-57
2022/06/01 05:25:55;;;;;;;1.03;1.03;;;;;;;;;;4938950;29;20213;-57
2022/06/01 05:28:42;;;;;;;1.00;1.00;;;;;;;;;;4940849;29;20217;-57
2022/06/01 05:31:29;;;;;;;1.03;1.03;;;;;;;;;;4938803;28;20224;-59
2022/06/01 05:34:16;;;;;;;1.03;1.03;;;;;;;;;;4945558;28;20212;-57
2022/06/01 05:37:04;;;;;;;1.37;1.37;;;;;;;;;;4946130;28;20228;-57
2022/06/01 05:39:53;;;;;;;1.00;1.00;;;;;;;;;;4947736;28;20248;-57
2022/06/01 05:42:40;;;;;;;0.90;0.90;;;;;;;;;;4943993;28;20276;-57
2022/06/01 05:45:27;;;;;;;0.90;0.90;;;;;;;;;;4950622;29;20208;-57
2022/06/01 05:48:17;;;;;;;0.90;0.90;;;;;;;;;;4944805;28;20208;-58
2022/06/01 05:51:04;;;;;;;1.17;1.17;;;;;;;;;;4944653;28;20205;-57
2022/06/01 05:53:51;;;;;;;1.07;1.07;;;;;;;;;;4946876;29;20609;-57
2022/06/01 05:56:40;;;;;;;1.03;1.03;;;;;;;;;;4942774;29;20583;-58
2022/06/01 05:59:27;;;;;;;1.07;1.07;;;;;;;;;;4942496;28;20207;-57
2022/06/01 06:02:14;;;;;;;0.90;0.90;;;;;;;;;;4946156;28;20237;-58
2022/06/01 06:05:01;;;;;;;0.80;0.80;;;;;;;;;;4944981;28;20216;-57
2022/06/01 06:07:48;;;;;;;0.90;0.90;;;;;;;;;;4944256;29;20222;-57
2022/06/01 06:10:35;;;;;;;1.00;1.00;;;;;;;;;;4942795;28;20616;-58
2022/06/01 06:13:23;;;;;;;0.90;0.90;;;;;;;;;;4942664;28;20233;-57
2022/06/01 06:16:11;;;;;;;1.03;1.03;;;;;;;;;;4945428;28;20230;-62
2022/06/01 06:18:58;;;;;;;1.00;1.00;;;;;;;;;;4938251;29;20581;-58
2022/06/01 06:21:46;;;;;;;0.80;0.80;;;;;;;;;;4944671;28;20566;-58
2022/06/01 06:24:34;;;;;;;0.90;0.90;;;;;;;;;;4942931;29;20586;-57
2022/06/01 06:27:21;;;;;;;0.83;0.83;;;;;;;;;;4945793;28;20269;-57
2022/06/01 06:30:11;;;;;;;0.95;0.82;;;;;;;;;;4943643;29;20234;-58
2022/06/01 06:32:58;;;;;;;1.08;0.80;;;;;;;;;;4950411;28;20246;-57
2022/06/01 06:35:45;;;;;;;0.90;0.90;;;;;;;;;;4945066;29;20664;-57
2022/06/01 06:38:35;;;;;;;0.70;0.70;;;;;;;;;;4943800;28;20218;-57
2022/06/01 06:41:23;;;;;;;0.90;0.90;;;;;;;;;;4942296;28;20581;-59
2022/06/01 06:44:10;;;;;;;0.93;0.93;;;;;;;;;;4944576;28;20225;-58
2022/06/01 06:46:59;;;;;;;0.80;0.80;;;;;;;;;;4939880;28;20727;-57
2022/06/01 06:49:46;;;;;;;0.80;0.80;;;;;;;;;;4940671;28;20216;-55
2022/06/01 06:52:33;;;;;;;0.85;0.85;;;;;;;;;;4942715;29;20232;-55
2022/06/01 06:55:20;;;;;;;0.70;0.70;;;;;;;;;;4946206;29;20215;-56
2022/06/01 06:58:09;;;;;;;0.65;0.65;;;;;;;;;;4944136;28;20750;-55
2022/06/01 07:00:56;;;;;;;0.60;0.60;;;;;;;;;;4944243;28;20314;-57
2022/06/01 07:03:45;;;;;;;0.90;0.90;;;;;;;;;;4951033;28;20262;-57
2022/06/01 07:06:32;;;;;;;0.70;0.70;;;;;;;;;;4943411;29;20214;-56
2022/06/01 07:09:20;;;;;;;0.75;0.75;;;;;;;;;;4943597;29;20567;-56
2022/06/01 07:12:07;;;;;;;0.50;0.50;;;;;;;;;;4945220;28;20236;-56
2022/06/01 07:14:55;;;;;;;0.80;0.80;;;;;;;;;;4945490;28;20219;-56
2022/06/01 07:17:42;;;;;;;0.55;0.55;;;;;;;;;;4941349;28;20761;-55
2022/06/01 07:20:30;;;;;;;0.55;0.55;;;;;;;;;;4947059;28;20594;-55
2022/06/01 07:23:17;;;;;;;0.60;0.60;;;;;;;;;;4946704;29;20219;-55
2022/06/01 07:26:06;;;;;;;0.70;0.70;;;;;;;;;;4944712;29;20211;-55
2022/06/01 07:28:54;;;;;;;0.77;0.73;;;;;;;;;;4944229;28;20223;-56
2022/06/01 07:31:42;;;;;;;0.60;0.60;;;;;;;;;;4944936;29;20208;-56
2022/06/01 07:34:29;;;;;;;0.85;0.80;;;;;;;;;;4947680;28;20214;-56
2022/06/01 07:43:27;;;;;;;0.73;0.63;;;;;;;;;;4944826;29;20696;-56
2022/06/01 07:46:14;;;;;;;0.73;0.73;;;;;;;;;;4943536;28;20215;-55
2022/06/01 07:49:01;;;;;;;0.73;0.73;;;;;;;;;;4938110;29;20216;-55
2022/06/01 07:51:49;;;;;;;0.75;0.70;;;;;;;;;;4946467;29;20223;-56
2022/06/01 07:54:38;;;;;;;0.80;0.80;;;;;;;;;;4943608;29;20212;-56
2022/06/01 07:57:25;;;;;;;1.25;0.73;;;;;;;;;;4939096;29;20668;-57
2022/06/01 08:00:13;;;;;;;0.82;0.82;;;;;;;;;;4947740;28;20571;-55
2022/06/01 08:03:00;;;;;;;0.70;0.70;;;;;;;;;;4945744;28;20231;-55
2022/06/01 08:05:47;;;;;;;0.70;0.70;;;;;;;;;;4942304;29;20227;-54
2022/06/01 08:08:34;;;;;;;0.70;0.70;;;;;;;;;;4939503;28;20203;-55
2022/06/01 08:13:06;;;;;;;0.60;0.60;;;;;;;;;;4941449;29;20239;-55
2022/06/01 08:14:33;;;;;;;0.60;0.60;;;;;;;;;;4948542;29;20270;-54
2022/06/01 08:17:20;;;;;;;0.47;0.47;;;;;;;;;;4943221;29;20218;-55
2022/06/01 08:20:08;;;;;;;0.73;0.70;;;;;;;;;;4946198;29;20230;-55
2022/06/01 08:22:56;;;;;;;0.70;0.70;;;;;;;;;;4938745;29;20204;-55
2022/06/01 08:25:44;;;;;;;0.50;0.50;;;;;;;;;;4943435;28;20215;-55
2022/06/01 08:28:33;;;;;;;0.63;0.63;;;;;;;;;;4937398;28;20227;-55
2022/06/01 08:31:20;;;;;;;0.70;0.70;;;;;;;;;;4942535;28;20681;-55
2022/06/01 08:34:08;;;;;;;1.95;0.52;;;;;;;;;;4947195;28;20242;-54
2022/06/01 08:36:55;;;;;;;0.47;0.47;;;;;;;;;;4944737;29;20211;-54
2022/06/01 08:39:43;;;;;;;0.70;0.70;;;;;;;;;;4942280;29;20215;-54
2022/06/01 08:42:31;;;;;;;0.40;0.40;;;;;;;;;;4940335;29;20719;-55
2022/06/01 08:45:22;;;;;;;0.75;0.52;;;;;;;;;;4941113;28;20592;-54
2022/06/01 08:48:16;;;;;;;0.60;0.60;;;;;;;;;;4946857;29;20200;-55
2022/06/01 08:51:04;;;;;;;0.50;0.50;;;;;;;;;;4942181;29;20208;-57
2022/06/01 08:53:51;;;;;;;0.70;0.70;;;;;;;;;;4943449;29;20311;-56
2022/06/01 08:56:43;;;;;;;0.60;0.60;;;;;;;;;;4937934;28;20835;-57
2022/06/01 08:59:40;;;;;;;0.47;0.47;;;;;;;;;;4944805;28;20215;-57
2022/06/01 09:02:41;;;;;;;0.40;0.40;;;;;;;;;;4938824;28;20195;-57
2022/06/01 09:05:41;;;;;;;0.40;0.40;;;;;;;;;;4940704;29;20215;-57
2022/06/01 09:08:40;;;;;;;0.50;0.50;;;;;;;;;;4941691;29;20266;-57
2022/06/01 09:11:31;;;;;;;0.60;0.60;;;;;;;;;;4944220;28;20242;-58
2022/06/01 09:14:26;;;;;;;0.70;0.70;;;;;;;;;;4944491;28;20227;-57
2022/06/01 09:17:13;;;;;;;0.60;0.60;;;;;;;;;;4941510;29;20294;-57
2022/06/01 09:23:10;;;;;;;0.57;0.57;;;;;;;;;;4939206;29;20214;-57
2022/06/01 09:25:58;;;;;;;0.52;0.52;;;;;;;;;;4941357;28;20290;-57
2022/06/01 09:28:45;;;;;;;0.40;0.40;;;;;;;;;;4942241;28;20215;-58
2022/06/01 09:31:37;;;;;;;0.60;0.60;;;;;;;;;;4943203;28;20207;-56
2022/06/01 09:34:31;;;;;;;2.13;0.50;;;;;;;;;;4941926;28;20225;-57
2022/06/01 09:37:24;;;;;;;1.38;0.50;;;;;;;;;;4942451;28;20225;-56
2022/06/01 09:40:23;;;;;;;0.57;0.57;;;;;;;;;;4949773;28;20615;-56
2022/06/01 09:43:23;;;;;;;0.40;0.40;;;;;;;;;;4941779;29;20222;-56
2022/06/01 09:46:10;;;;;;;0.50;0.50;;;;;;;;;;4941279;28;20221;-56
2022/06/01 09:48:57;;;;;;;0.70;0.68;;;;;;;;;;4943948;29;20208;-57
2022/06/01 09:51:45;;;;;;;0.50;0.50;;;;;;;;;;4939388;28;20215;-56
2022/06/01 09:54:37;;;;;;;0.60;0.60;;;;;;;;;;4947855;29;20907;-57
2022/06/01 09:57:28;;;;;;;0.57;0.50;;;;;;;;;;4940085;28;20226;-56
2022/06/01 10:06:37;;;;;;;0.45;0.45;;;;;;;;;;4939688;28;20202;-56
2022/06/01 10:09:26;;;;;;;0.50;0.50;;;;;;;;;;4943446;29;20218;-56
2022/06/01 10:12:25;;;;;;;0.40;0.40;;;;;;;;;;4941820;28;20240;-56
2022/06/01 10:15:21;;;;;;;0.60;0.60;;;;;;;;;;4941450;29;20201;-56
2022/06/01 10:18:13;;;;;;;0.60;0.60;;;;;;;;;;4939553;29;20204;-57
2022/06/01 10:21:09;;;;;;;0.60;0.60;;;;;;;;;;4940034;28;20715;-57
2022/06/01 10:24:01;;;;;;;0.60;0.60;;;;;;;;;;4946740;29;20219;-58
2022/06/01 10:26:52;;;;;;;0.40;0.40;;;;;;;;;;4940856;29;20219;-57
2022/06/01 10:29:44;;;;;;;0.40;0.40;;;;;;;;;;4941573;29;20215;-57
2022/06/01 10:32:40;;;;;;;0.52;0.52;;;;;;;;;;4944422;29;20592;-57
2022/06/01 10:35:37;;;;;;;1.00;0.60;;;;;;;;;;4945161;29;20207;-57
2022/06/01 10:38:28;;;;;;;0.50;0.50;;;;;;;;;;4940742;29;20207;-57
2022/06/01 10:41:20;;;;;;;0.40;0.40;;;;;;;;;;4943719;29;20215;-57
2022/06/01 10:44:15;;;;;;;0.40;0.40;;;;;;;;;;4946525;29;20311;-57
2022/06/01 10:47:10;;;;;;;0.50;0.47;;;;;;;;;;4948388;28;20221;-57
2022/06/01 10:50:02;;;;;;;0.40;0.40;;;;;;;;;;4945719;28;20235;-57
2022/06/01 10:53:08;;;;;;;0.45;0.45;;;;;;;;;;4941730;28;20223;-58
2022/06/01 10:55:55;;;;;;;0.40;0.40;;;;;;;;;;4945282;29;20211;-57
2022/06/01 10:58:43;;;;;;;0.60;0.60;;;;;;;;;;4938272;28;20218;-57
2022/06/01 11:01:41;;;;;;;0.50;0.50;;;;;;;;;;4943880;28;20240;-57
2022/06/01 11:04:51;;;;;;;0.52;0.52;;;;;;;;;;4949603;28;20736;-58
2022/06/01 11:07:50;;;;;;;0.52;0.52;;;;;;;;;;4942907;29;20302;-57
2022/06/01 11:10:46;;;;;;;0.70;0.70;;;;;;;;;;4944027;28;20232;-58
2022/06/01 11:13:46;;;;;;;0.90;0.50;;;;;;;;;;4941110;28;20690;-58
2022/06/01 11:16:44;;;;;;;0.60;0.60;;;;;;;;;;4945682;28;20687;-56
2022/06/01 11:19:44;;;;;;;0.40;0.40;;;;;;;;;;4946735;28;20217;-57
2022/06/01 11:22:48;;;;;;;0.50;0.50;;;;;;;;;;4943201;29;20215;-57
2022/06/01 11:25:41;;;;;;;0.20;0.20;;;;;;;;;;4944184;28;20212;-57
2022/06/01 11:29:06;;;;;;;0.57;0.57;;;;;;;;;;4945059;28;20215;-57
2022/06/01 11:31:57;;;;;;;0.55;0.55;;;;;;;;;;4945243;28;20216;-57
2022/06/01 11:34:53;;;;;;;0.30;0.30;;;;;;;;;;4947455;29;20261;-57
2022/06/01 11:37:46;;;;;;;0.60;0.50;;;;;;;;;;4942169;29;20230;-57
2022/06/01 11:40:45;;;;;;;0.38;0.38;;;;;;;;;;4943724;28;20246;-56
2022/06/01 11:43:37;;;;;;;0.47;0.40;;;;;;;;;;4939711;29;20208;-57
2022/06/01 11:46:26;;;;;;;0.30;0.30;;;;;;;;;;4941914;28;20679;-58
2022/06/01 11:49:25;;;;;;;0.40;0.40;;;;;;;;;;4942834;29;20211;-57
2022/06/01 11:52:30;;;;;;;0.70;0.40;;;;;;;;;;4947281;28;20215;-57
2022/06/01 11:55:45;;;;;;;0.40;0.40;;;;;;;;;;4941795;29;20794;-57
2022/06/01 11:58:45;;;;;;;0.50;0.50;;;;;;;;;;4949362;28;20199;-57
2022/06/01 12:01:45;;;;;;;0.50;0.50;;;;;;;;;;4941647;28;20653;-57
2022/06/01 12:04:51;;;;;;;0.50;0.50;;;;;;;;;;4946536;28;20306;-57
2022/06/01 12:07:43;;;;;;;0.50;0.50;;;;;;;;;;4943950;28;20207;-58
2022/06/01 12:10:33;;;;;;;0.38;0.38;;;;;;;;;;4944279;28;20271;-57
2022/06/01 12:13:26;;;;;;;0.57;0.57;;;;;;;;;;4943446;28;20573;-57
2022/06/01 12:16:21;;;;;;;0.45;0.45;;;;;;;;;;4942551;28;20215;-57
2022/06/01 12:19:11;;;;;;;0.40;0.40;;;;;;;;;;4944992;28;20226;-57
2022/06/01 12:22:00;;;;;;;0.32;0.32;;;;;;;;;;4939111;29;20218;-58
2022/06/01 12:28:33;;;;;;;0.68;0.40;;;;;;;;;;4888724;29;20205;-57
2022/06/01 12:31:24;;;;;;;0.25;0.25;;;;;;;;;;4935609;29;20216;-57
2022/06/01 12:34:16;;;;;;;0.30;0.30;;;;;;;;;;4941286;28;20707;-57
2022/06/01 12:37:10;;;;;;;0.50;0.50;;;;;;;;;;4941937;28;20210;-58
2022/06/01 12:40:01;;;;;;;0.50;0.50;;;;;;;;;;4945142;28;20321;-57
2022/06/01 12:42:55;;;;;;;0.30;0.30;;;;;;;;;;4938922;28;20219;-57
2022/06/01 12:45:44;;;;;;;0.40;0.40;;;;;;;;;;4937636;28;20223;-57
2022/06/01 12:48:31;;;;;;;0.50;0.50;;;;;;;;;;4944728;28;20215;-57
2022/06/01 12:51:19;;;;;;;1.23;0.47;;;;;;;;;;4939861;28;20218;-58
2022/06/01 12:54:07;;;;;;;0.50;0.50;;;;;;;;;;4940022;29;20256;-57
2022/06/01 12:56:55;;;;;;;0.32;0.32;;;;;;;;;;4941463;28;20296;-57
2022/06/01 12:59:43;;;;;;;0.40;0.40;;;;;;;;;;4943103;28;20228;-57
2022/06/01 13:02:34;;;;;;;0.30;0.30;;;;;;;;;;4947943;28;20225;-57
2022/06/01 13:05:27;;;;;;;0.50;0.50;;;;;;;;;;4945884;28;20202;-57
2022/06/01 13:08:19;;;;;;;0.47;0.47;;;;;;;;;;4940562;29;20679;-56
2022/06/01 13:11:23;;;;;;;0.50;0.50;;;;;;;;;;4942726;29;20303;-57
2022/06/01 13:14:12;;;;;;;0.40;0.40;;;;;;;;;;4945728;28;20236;-57
2022/06/01 13:17:02;;;;;;;0.40;0.40;;;;;;;;;;4940561;29;20205;-58
2022/06/01 13:19:58;;;;;;;0.40;0.40;;;;;;;;;;4942015;28;20563;-57
2022/06/01 13:22:50;;;;;;;0.50;0.50;;;;;;;;;;4942026;28;20284;-57
2022/06/01 13:25:38;;;;;;;0.40;0.40;;;;;;;;;;4943089;28;20243;-57
2022/06/01 13:28:26;;;;;;;0.30;0.30;;;;;;;;;;4944938;29;20240;-57
2022/06/01 13:31:15;;;;;;;0.30;0.30;;;;;;;;;;4938061;28;20218;-75
2022/06/01 13:34:02;;;;;;;0.30;0.30;;;;;;;;;;4943776;28;20234;-57
2022/06/01 13:36:50;;;;;;;0.40;0.40;;;;;;;;;;4944285;28;20223;-57
2022/06/01 13:39:44;;;;;;;0.33;0.33;;;;;;;;;;4945785;28;20206;-57
2022/06/01 13:42:34;;;;;;;0.60;0.60;;;;;;;;;;4945729;28;20209;-57
2022/06/01 13:45:32;;;;;;;0.40;0.40;;;;;;;;;;4945716;28;20209;-57
2022/06/01 13:48:32;;;;;;;0.53;0.53;;;;;;;;;;4944656;28;20214;-57
2022/06/01 13:51:25;;;;;;;0.70;0.50;;;;;;;;;;4947275;28;20215;-57
2022/06/01 13:54:29;;;;;;;0.33;0.33;;;;;;;;;;4942642;29;20233;-57
2022/06/01 13:57:19;;;;;;;0.23;0.23;;;;;;;;;;4950003;28;21030;-56
2022/06/01 14:00:19;;;;;;;0.50;0.43;;;;;;;;;;4949908;28;20219;-57
2022/06/01 14:03:13;;;;;;;0.30;0.30;;;;;;;;;;4948800;28;20222;-57
2022/06/01 14:06:06;;;;;;;0.23;0.23;;;;;;;;;;4945736;28;20213;-57
2022/06/01 14:08:54;;;;;;;0.50;0.50;;;;;;;;;;4945077;28;20206;-57
2022/06/01 14:11:43;;;;;;;0.50;0.50;;;;;;;;;;4945273;28;20246;-57
2022/06/01 14:14:32;;;;;;;0.20;0.20;;;;;;;;;;4952133;28;20262;-57
2022/06/01 14:17:23;;;;;;;0.40;0.40;;;;;;;;;;4942782;29;20549;-57
2022/06/01 14:20:12;;;;;;;0.40;0.40;;;;;;;;;;4949210;28;20229;-58
2022/06/01 14:23:01;;;;;;;0.40;0.40;;;;;;;;;;4949594;29;20214;-58
2022/06/01 14:28:53;;;;;;;0.40;0.40;;;;;;;;;;4948487;29;20210;-57
2022/06/01 14:31:41;;;;;;;0.40;0.40;;;;;;;;;;4946168;28;20269;-57
2022/06/01 14:34:29;;;;;;;0.40;0.40;;;;;;;;;;4950572;28;20588;-58
2022/06/01 14:37:16;;;;;;;0.60;0.40;;;;;;;;;;4943649;28;20254;-57
2022/06/01 14:40:06;;;;;;;0.40;0.40;;;;;;;;;;4949251;29;20701;-81
2022/06/01 14:42:53;;;;;;;0.50;0.50;;;;;;;;;;4945421;28;20566;-57
2022/06/01 14:45:40;;;;;;;0.30;0.30;;;;;;;;;;4944889;29;20206;-57
2022/06/01 14:48:27;;;;;;;0.30;0.30;;;;;;;;;;4942802;29;20213;-57
2022/06/01 14:51:17;;;;;;;0.33;0.33;;;;;;;;;;4944941;29;20224;-57
2022/06/01 14:54:06;;;;;;;0.30;0.30;;;;;;;;;;4944521;29;20225;-57
2022/06/01 14:56:55;;;;;;;0.33;0.33;;;;;;;;;;4944917;29;20582;-58
2022/06/01 14:59:45;;;;;;;0.37;0.37;;;;;;;;;;4949130;28;20206;-58
2022/06/01 15:02:32;;;;;;;0.50;0.50;;;;;;;;;;4945372;28;20277;-58
2022/06/01 15:05:19;;;;;;;0.40;0.40;;;;;;;;;;4943881;28;20224;-58
2022/06/01 15:08:07;;;;;;;0.30;0.30;;;;;;;;;;4943911;28;20213;-57
2022/06/01 15:10:54;;;;;;;0.40;0.40;;;;;;;;;;4944301;29;20233;-57
2022/06/01 15:13:42;;;;;;;0.30;0.30;;;;;;;;;;4944206;28;20205;-57
2022/06/01 15:16:29;;;;;;;0.30;0.30;;;;;;;;;;4942822;29;20203;-58
2022/06/01 15:19:20;;;;;;;0.37;0.37;;;;;;;;;;4943694;28;20667;-58
2022/06/01 15:22:07;;;;;;;0.77;0.30;;;;;;;;;;4939436;28;20215;-58
2022/06/01 15:24:55;;;;;;;0.20;0.20;;;;;;;;;;4939890;29;20215;-58
2022/06/01 15:27:42;;;;;;;0.97;0.40;;;;;;;;;;4943152;28;20217;-57
2022/06/01 15:39:46;;;;;;;0.40;0.40;;;;;;;;;;4943578;28;20691;-57
2022/06/01 15:42:33;;;;;;;0.50;0.50;;;;;;;;;;4944185;29;20734;-57
2022/06/01 15:45:20;;;;;;;0.30;0.30;;;;;;;;;;4945700;28;20206;-57
2022/06/01 15:48:10;;;;;;;0.30;0.30;;;;;;;;;;4946008;29;20211;-57
2022/06/01 15:50:58;;;;;;;0.37;0.37;;;;;;;;;;4942710;28;20588;-57
2022/06/01 15:53:45;;;;;;;0.30;0.30;;;;;;;;;;4947653;28;20214;-57
2022/06/01 15:56:33;;;;;;;0.40;0.40;;;;;;;;;;4938866;28;20286;-57
2022/06/01 15:59:21;;;;;;;0.40;0.40;;;;;;;;;;4943521;28;20224;-57
2022/06/01 16:02:10;;;;;;;0.30;0.30;;;;;;;;;;4942441;29;20226;-59
2022/06/01 16:04:59;;;;;;;0.30;0.30;;;;;;;;;;4937446;29;20215;-59
2022/06/01 16:07:46;;;;;;;0.23;0.23;;;;;;;;;;4946268;28;20211;-57
2022/06/01 16:10:33;;;;;;;0.40;0.40;;;;;;;;;;4945920;29;20695;-57
2022/06/01 16:13:21;;;;;;;0.40;0.40;;;;;;;;;;4940003;29;20205;-57
2022/06/01 16:16:08;;;;;;;0.23;0.23;;;;;;;;;;4943152;28;20599;-57
2022/06/01 16:18:56;;;;;;;0.30;0.30;;;;;;;;;;4940768;28;20214;-57
2022/06/01 16:21:45;;;;;;;0.30;0.30;;;;;;;;;;4939643;29;20221;-57
2022/06/01 16:24:32;;;;;;;0.30;0.30;;;;;;;;;;4942371;28;20202;-57
2022/06/01 16:27:20;;;;;;;0.40;0.40;;;;;;;;;;4941298;28;20250;-57
2022/06/01 16:30:09;;;;;;;0.30;0.30;;;;;;;;;;4944888;29;20218;-57
2022/06/01 16:32:57;;;;;;;0.50;0.50;;;;;;;;;;4947869;28;20219;-57
2022/06/01 16:35:44;;;;;;;0.47;0.47;;;;;;;;;;4940639;29;20322;-70
2022/06/01 16:38:33;;;;;;;0.23;0.23;;;;;;;;;;4940444;29;20300;-57
2022/06/01 16:41:20;;;;;;;0.20;0.20;;;;;;;;;;4942963;28;20217;-57
2022/06/01 16:44:08;;;;;;;0.57;0.40;;;;;;;;;;4942277;28;20228;-57
2022/06/01 16:46:55;;;;;;;0.57;0.40;;;;;;;;;;4939174;28;20210;-57
2022/06/01 16:49:43;;;;;;;0.30;0.30;;;;;;;;;;4941539;28;20362;-57
2022/06/01 16:52:30;;;;;;;0.30;0.30;;;;;;;;;;4939860;28;20679;-57
2022/06/01 16:55:19;;;;;;;0.30;0.30;;;;;;;;;;4946822;29;20237;-57
2022/06/01 16:58:07;;;;;;;0.30;0.30;;;;;;;;;;4940826;29;20225;-57
2022/06/01 17:00:54;;;;;;;0.30;0.30;;;;;;;;;;4938724;28;20233;-58
2022/06/01 17:03:41;;;;;;;0.20;0.20;;;;;;;;;;4945089;28;20458;-57
2022/06/01 17:06:28;;;;;;;0.27;0.27;;;;;;;;;;4940639;28;20209;-58
2022/06/01 17:09:15;;;;;;;0.30;0.30;;;;;;;;;;4941098;29;20579;-57
2022/06/01 17:12:05;;;;;;;0.20;0.20;;;;;;;;;;4943605;28;20243;-57
2022/06/01 17:14:52;;;;;;;0.40;0.40;;;;;;;;;;4942639;29;20241;-57
2022/06/01 17:17:42;;;;;;;0.20;0.20;;;;;;;;;;4941197;28;20209;-57
2022/06/01 17:20:33;;;;;;;0.30;0.30;;;;;;;;;;4946588;29;20221;-57
2022/06/01 17:23:22;;;;;;;0.33;0.33;;;;;;;;;;4944856;29;20223;-57
2022/06/01 17:26:09;;;;;;;0.40;0.40;;;;;;;;;;4938356;28;20200;-57
2022/06/01 17:28:57;;;;;;;0.30;0.30;;;;;;;;;;4943489;28;20660;-57
2022/06/01 17:31:44;;;;;;;0.30;0.30;;;;;;;;;;4945536;29;20219;-57
2022/06/01 17:34:32;;;;;;;0.50;0.50;;;;;;;;;;4950719;28;20212;-57
2022/06/01 17:37:19;;;;;;;0.40;0.40;;;;;;;;;;4948968;28;20219;-57